AZA235 LTFM-LIMC
Flight info
| Callsign | AZA235 |
|---|---|
| Flight time | N/A |
| Altitude | 40000 |
| Route | VADEN N618 GOL Y520 LUKOV Q8 DOLAP DCT OBLAK DCT VEBAR DCT UZVEZ DCT ELTIB DCT PEVAL DCT ADOSA/N0476F410 DCT IDREK DCT ELTAR DCT NOBMI DCT PEXUG |
| Aircraft | B772/H-SDE2E3FGHIJ5LORVWXY/LB1D1 |
Departure
| Time | 2026-05-05 17:34 |
|---|---|
| Airport | İstanbul Airport (LTFM) |
Arrival
| Time | N/A |
|---|---|
| Airport | Milan Malpensa International Airport (LIMC) |
| Time | Latitude | Longitude | Altitude | Speed | Heading |
|---|---|---|---|---|---|
| 2026-05-05 17:05 | 41.27046 | 28.72126 | 180 ft | 0 kts | 269° |
| 2026-05-05 17:24 | 41.27046 | 28.72129 | 180 ft | 0 kts | 269° |
| 2026-05-05 17:24 | 41.27047 | 28.72149 | 180 ft | 2 kts | 265° |
| 2026-05-05 17:24 | 41.27049 | 28.72171 | 180 ft | 2 kts | 260° |
| 2026-05-05 17:24 | 41.27052 | 28.72192 | 180 ft | 2 kts | 254° |
| 2026-05-05 17:25 | 41.27057 | 28.72213 | 180 ft | 2 kts | 246° |
| 2026-05-05 17:25 | 41.27062 | 28.72226 | 180 ft | 2 kts | 240° |
| 2026-05-05 17:25 | 41.27075 | 28.72249 | 180 ft | 2 kts | 223° |
| 2026-05-05 17:25 | 41.27087 | 28.72263 | 180 ft | 2 kts | 210° |
| 2026-05-05 17:26 | 41.27102 | 28.72272 | 180 ft | 2 kts | 197° |
| 2026-05-05 17:26 | 41.27118 | 28.72277 | 180 ft | 2 kts | 186° |
| 2026-05-05 17:26 | 41.27129 | 28.72278 | 180 ft | 1 kts | 181° |
| 2026-05-05 17:26 | 41.27130 | 28.72278 | 180 ft | 0 kts | 181° |
| 2026-05-05 17:28 | 41.27111 | 28.72278 | 180 ft | 11 kts | 181° |
| 2026-05-05 17:29 | 41.26975 | 28.72280 | 180 ft | 26 kts | 179° |
| 2026-05-05 17:29 | 41.26776 | 28.72286 | 181 ft | 30 kts | 179° |
| 2026-05-05 17:29 | 41.26570 | 28.72290 | 181 ft | 30 kts | 179° |
| 2026-05-05 17:29 | 41.26364 | 28.72294 | 180 ft | 30 kts | 179° |
| 2026-05-05 17:30 | 41.26217 | 28.72319 | 180 ft | 14 kts | 137° |
| 2026-05-05 17:30 | 41.26202 | 28.72374 | 180 ft | 0 kts | 94° |
| 2026-05-05 17:32 | 41.26201 | 28.72396 | 180 ft | 5 kts | 92° |
| 2026-05-05 17:32 | 41.26200 | 28.72466 | 179 ft | 10 kts | 90° |
| 2026-05-05 17:32 | 41.26235 | 28.72528 | 179 ft | 8 kts | 5° |
| 2026-05-05 17:33 | 41.26260 | 28.72525 | 179 ft | 0 kts | 357° |
| 2026-05-05 17:33 | 41.26270 | 28.72524 | 180 ft | 11 kts | 357° |
| 2026-05-05 17:33 | 41.26693 | 28.72516 | 183 ft | 116 kts | 359° |
| 2026-05-05 17:34 | 41.27777 | 28.72505 | 521 ft | 180 kts | 359° |
| 2026-05-05 17:34 | 41.28983 | 28.72470 | 2059 ft | 167 kts | 0° |
| 2026-05-05 17:34 | 41.30173 | 28.72484 | 3248 ft | 180 kts | 0° |
| 2026-05-05 17:34 | 41.31518 | 28.72492 | 3708 ft | 208 kts | 360° |
| 2026-05-05 17:35 | 41.33023 | 28.72491 | 4379 ft | 219 kts | 360° |
| 2026-05-05 17:35 | 41.34586 | 28.72483 | 4932 ft | 229 kts | 358° |
| 2026-05-05 17:35 | 41.36167 | 28.71990 | 4981 ft | 241 kts | 329° |
| 2026-05-05 17:35 | 41.37284 | 28.70301 | 5010 ft | 249 kts | 304° |
| 2026-05-05 17:36 | 41.38172 | 28.68292 | 5001 ft | 254 kts | 306° |
| 2026-05-05 17:36 | 41.39104 | 28.66308 | 5171 ft | 249 kts | 307° |
| 2026-05-05 17:36 | 41.40027 | 28.64360 | 5556 ft | 251 kts | 307° |
| 2026-05-05 17:36 | 41.40970 | 28.62375 | 5956 ft | 255 kts | 307° |
| 2026-05-05 17:37 | 41.41924 | 28.60366 | 6343 ft | 257 kts | 307° |
| 2026-05-05 17:37 | 41.42558 | 28.59029 | 6644 ft | 261 kts | 307° |
| 2026-05-05 17:37 | 41.43887 | 28.56237 | 7339 ft | 272 kts | 307° |
| 2026-05-05 17:37 | 41.44905 | 28.54095 | 7839 ft | 274 kts | 307° |
| 2026-05-05 17:38 | 41.45928 | 28.51939 | 8340 ft | 276 kts | 307° |
| 2026-05-05 17:38 | 41.46955 | 28.49774 | 8842 ft | 277 kts | 307° |
| 2026-05-05 17:38 | 41.47988 | 28.47598 | 9366 ft | 278 kts | 307° |
| 2026-05-05 17:38 | 41.49026 | 28.45409 | 9902 ft | 280 kts | 307° |
| 2026-05-05 17:39 | 41.50073 | 28.43201 | 10392 ft | 283 kts | 307° |
| 2026-05-05 17:39 | 41.51135 | 28.40962 | 10889 ft | 292 kts | 307° |
| 2026-05-05 17:39 | 41.52248 | 28.38620 | 11471 ft | 305 kts | 306° |
| 2026-05-05 17:39 | 41.53405 | 28.36181 | 12126 ft | 317 kts | 306° |
| 2026-05-05 17:40 | 41.54607 | 28.33646 | 12809 ft | 330 kts | 306° |
| 2026-05-05 17:40 | 41.55850 | 28.31017 | 13488 ft | 339 kts | 306° |
| 2026-05-05 17:40 | 41.57116 | 28.28333 | 14131 ft | 343 kts | 306° |
| 2026-05-05 17:40 | 41.58390 | 28.25627 | 14732 ft | 345 kts | 306° |
| 2026-05-05 17:41 | 41.59673 | 28.22901 | 15331 ft | 349 kts | 306° |
| 2026-05-05 17:41 | 41.60972 | 28.20139 | 15967 ft | 355 kts | 306° |
| 2026-05-05 17:41 | 41.62297 | 28.17324 | 16734 ft | 361 kts | 306° |
| 2026-05-05 17:41 | 41.63642 | 28.14462 | 17530 ft | 366 kts | 306° |
| 2026-05-05 17:42 | 41.65002 | 28.11567 | 18342 ft | 369 kts | 306° |
| 2026-05-05 17:42 | 41.66370 | 28.08649 | 19050 ft | 372 kts | 305° |
| 2026-05-05 17:42 | 41.67751 | 28.05700 | 19772 ft | 374 kts | 305° |
| 2026-05-05 17:42 | 41.69135 | 28.02742 | 20518 ft | 376 kts | 305° |
| 2026-05-05 17:43 | 41.70523 | 27.99774 | 21258 ft | 377 kts | 305° |
| 2026-05-05 17:43 | 41.71914 | 27.96799 | 22034 ft | 377 kts | 305° |
| 2026-05-05 17:43 | 41.73303 | 27.93820 | 22821 ft | 377 kts | 304° |
| 2026-05-05 17:43 | 41.74224 | 27.91845 | 23366 ft | 377 kts | 304° |
| 2026-05-05 17:44 | 41.75617 | 27.88856 | 23959 ft | 381 kts | 304° |
| 2026-05-05 17:44 | 41.77049 | 27.85786 | 24082 ft | 398 kts | 304° |
| 2026-05-05 17:44 | 41.78542 | 27.82583 | 24301 ft | 409 kts | 304° |
| 2026-05-05 17:44 | 41.80056 | 27.79324 | 24800 ft | 414 kts | 304° |
| 2026-05-05 17:45 | 41.81584 | 27.76030 | 25275 ft | 418 kts | 304° |
| 2026-05-05 17:45 | 41.83124 | 27.72706 | 25757 ft | 422 kts | 304° |
| 2026-05-05 17:45 | 41.84679 | 27.69345 | 26256 ft | 425 kts | 304° |
| 2026-05-05 17:45 | 41.86243 | 27.65964 | 26765 ft | 428 kts | 303° |
| 2026-05-05 17:46 | 41.87819 | 27.62553 | 27277 ft | 432 kts | 303° |
| 2026-05-05 17:46 | 41.89404 | 27.59119 | 27805 ft | 435 kts | 303° |
| 2026-05-05 17:46 | 41.91001 | 27.55656 | 28341 ft | 438 kts | 303° |
| 2026-05-05 17:46 | 41.92607 | 27.52167 | 28855 ft | 440 kts | 303° |
| 2026-05-05 17:47 | 41.94220 | 27.48659 | 29430 ft | 443 kts | 303° |
| 2026-05-05 17:47 | 41.95842 | 27.45126 | 29993 ft | 445 kts | 303° |
| 2026-05-05 17:47 | 41.97468 | 27.41583 | 30502 ft | 446 kts | 303° |
| 2026-05-05 17:47 | 41.99098 | 27.38030 | 30993 ft | 448 kts | 303° |
| 2026-05-05 17:48 | 42.00733 | 27.34458 | 31471 ft | 449 kts | 303° |
| 2026-05-05 17:48 | 42.02371 | 27.30873 | 31981 ft | 450 kts | 303° |
| 2026-05-05 17:48 | 42.04010 | 27.27285 | 32488 ft | 450 kts | 303° |
| 2026-05-05 17:48 | 42.05655 | 27.23694 | 33014 ft | 450 kts | 304° |
| 2026-05-05 17:49 | 42.07450 | 27.20252 | 33535 ft | 448 kts | 310° |
| 2026-05-05 17:49 | 42.09446 | 27.17158 | 34071 ft | 446 kts | 314° |
| 2026-05-05 17:49 | 42.11476 | 27.13889 | 34540 ft | 446 kts | 308° |
| 2026-05-05 17:49 | 42.13181 | 27.10398 | 35011 ft | 447 kts | 302° |
| 2026-05-05 17:50 | 42.14596 | 27.06675 | 35500 ft | 446 kts | 297° |
| 2026-05-05 17:50 | 42.15902 | 27.02891 | 35975 ft | 444 kts | 297° |
| 2026-05-05 17:50 | 42.17199 | 26.99123 | 36469 ft | 442 kts | 297° |
| 2026-05-05 17:50 | 42.18491 | 26.95379 | 36968 ft | 439 kts | 297° |
| 2026-05-05 17:51 | 42.19779 | 26.91661 | 37479 ft | 436 kts | 297° |
| 2026-05-05 17:51 | 42.21057 | 26.87978 | 37992 ft | 432 kts | 297° |
| 2026-05-05 17:51 | 42.22329 | 26.84321 | 38531 ft | 428 kts | 297° |
| 2026-05-05 17:51 | 42.23589 | 26.80700 | 38990 ft | 424 kts | 297° |
| 2026-05-05 17:52 | 42.24840 | 26.77106 | 39423 ft | 419 kts | 297° |
| 2026-05-05 17:52 | 42.26066 | 26.73577 | 39851 ft | 415 kts | 297° |
| 2026-05-05 17:52 | 42.27292 | 26.70048 | 40000 ft | 419 kts | 297° |
| 2026-05-05 17:53 | 42.29787 | 26.62857 | 39931 ft | 431 kts | 297° |